Time;durP1;ratioP1;P1;durP2;ratioP2;P2;SDS_P1;SDS_P2;PMS_P1;PMS_P2;Temp;Humidity;BMP_temperature;BMP_pressure;BME280_temperature;BME280_humidity;BME280_pressure;Samples;Min_cycle;Max_cycle;Signal;HPM_P1;HPM_P2
2021/06/04 00:01:37;;;;;;;10.60;9.70;;;21.20;99.90;;;;;;5053646;28;20425;-70
2021/06/04 00:04:03;;;;;;;13.57;12.37;;;21.20;99.90;;;;;;5053367;28;20170;-70
2021/06/04 00:06:29;;;;;;;15.02;13.63;;;21.20;99.90;;;;;;5044647;28;20422;-70
2021/06/04 00:08:55;;;;;;;15.53;14.13;;;21.20;99.90;;;;;;5038337;28;20182;-70
2021/06/04 00:11:24;;;;;;;13.80;12.60;;;21.10;99.90;;;;;;5033952;28;20486;-69
2021/06/04 00:13:56;;;;;;;11.77;10.87;;;21.10;99.90;;;;;;5033567;28;20405;-69
2021/06/04 00:16:27;;;;;;;12.13;10.93;;;21.10;99.90;;;;;;5044305;28;20432;-70
2021/06/04 00:18:53;;;;;;;12.80;11.70;;;21.10;99.90;;;;;;5054036;28;20829;-70
2021/06/04 00:21:29;;;;;;;12.03;10.93;;;21.00;99.90;;;;;;5053569;28;20401;-70
2021/06/04 00:23:58;;;;;;;13.93;11.83;;;21.00;99.90;;;;;;5053318;28;20912;-70
2021/06/04 00:26:24;;;;;;;12.67;11.47;;;20.90;99.90;;;;;;5053727;28;20447;-70
2021/06/04 00:28:50;;;;;;;14.20;12.80;;;20.90;99.90;;;;;;5053085;28;20413;-70
2021/06/04 00:31:15;;;;;;;15.93;14.43;;;21.00;99.90;;;;;;5053457;28;20427;-70
2021/06/04 00:33:42;;;;;;;16.27;14.80;;;21.00;99.90;;;;;;5054123;28;20173;-69
2021/06/04 00:36:08;;;;;;;15.03;13.63;;;21.00;99.90;;;;;;5054552;28;20209;-70
2021/06/04 00:38:35;;;;;;;16.00;14.60;;;21.00;99.90;;;;;;5052510;28;20427;-70
2021/06/04 00:41:06;;;;;;;15.57;14.07;;;21.00;99.90;;;;;;5053396;28;20443;-69
2021/06/04 00:43:31;;;;;;;14.33;12.93;;;20.90;99.90;;;;;;5053356;28;20483;-70
2021/06/04 00:45:57;;;;;;;14.13;12.67;;;20.90;99.90;;;;;;5053462;28;20519;-69
2021/06/04 00:48:25;;;;;;;15.40;14.10;;;21.00;99.90;;;;;;5053176;28;20705;-69
2021/06/04 00:51:00;;;;;;;16.17;14.63;;;20.90;99.90;;;;;;5054455;28;20894;-70
2021/06/04 00:53:26;;;;;;;16.70;15.10;;;21.00;99.90;;;;;;5052908;28;20515;-69
2021/06/04 00:55:53;;;;;;;15.87;14.33;;;20.90;99.90;;;;;;5053024;28;20966;-69
2021/06/04 00:58:25;;;;;;;16.03;14.53;;;20.90;99.90;;;;;;5053209;28;20464;-70
2021/06/04 01:00:54;;;;;;;15.80;14.40;;;20.80;99.90;;;;;;5055167;28;20408;-70
2021/06/04 01:03:24;;;;;;;13.20;12.10;;;20.80;99.90;;;;;;5057429;28;20428;-70
2021/06/04 01:05:50;;;;;;;13.70;12.40;;;20.70;99.90;;;;;;5057568;28;20789;-70
2021/06/04 01:08:21;;;;;;;12.87;11.87;;;20.70;99.90;;;;;;5057400;28;20428;-69
2021/06/04 01:11:11;;;;;;;12.38;11.38;;;20.80;99.90;;;;;;5067125;28;20404;-68
2021/06/04 01:13:59;;;;;;;15.03;13.57;;;20.90;99.90;;;;;;5059833;28;20184;-69
2021/06/04 01:16:35;;;;;;;14.07;12.67;;;20.80;99.90;;;;;;5059754;28;20519;-69
2021/06/04 01:19:22;;;;;;;13.50;12.40;;;20.80;99.90;;;;;;5058857;28;20598;-70
2021/06/04 01:21:53;;;;;;;13.20;12.10;;;20.80;99.90;;;;;;5057549;28;20419;-70
2021/06/04 01:24:51;;;;;;;11.57;10.47;;;20.80;99.90;;;;;;5056550;28;20495;-70
2021/06/04 01:27:22;;;;;;;12.70;11.60;;;20.60;99.90;;;;;;5056950;28;20894;-70
2021/06/04 01:30:15;;;;;;;12.03;11.03;;;20.50;99.90;;;;;;5057115;28;20421;-70
2021/06/04 01:32:42;;;;;;;12.67;11.43;;;20.40;99.90;;;;;;5059686;28;20902;-69
2021/06/04 01:35:13;;;;;;;13.30;12.20;;;20.30;99.90;;;;;;5059370;28;20790;-68
2021/06/04 01:37:41;;;;;;;12.30;11.20;;;20.30;99.90;;;;;;5057682;28;20440;-69
2021/06/04 01:40:28;;;;;;;12.40;11.40;;;20.40;99.90;;;;;;5056627;28;20520;-70
2021/06/04 01:43:00;;;;;;;11.13;10.13;;;20.40;99.90;;;;;;5056320;28;20415;-70
2021/06/04 01:45:33;;;;;;;10.63;9.73;;;20.50;99.90;;;;;;5057194;28;20421;-69
2021/06/04 01:48:10;;;;;;;11.15;10.05;;;20.60;99.90;;;;;;5057355;28;20415;-70
2021/06/04 01:50:44;;;;;;;11.30;10.20;;;20.60;99.90;;;;;;5056437;28;20174;-69
2021/06/04 01:53:16;;;;;;;10.87;9.97;;;20.70;99.90;;;;;;5036764;28;20447;-70
2021/06/04 01:55:47;;;;;;;11.13;10.20;;;20.60;99.90;;;;;;5036661;28;20434;-70
2021/06/04 01:58:20;;;;;;;11.47;10.47;;;20.60;99.90;;;;;;5035989;28;20833;-70
2021/06/04 02:01:00;;;;;;;11.17;10.17;;;20.60;99.90;;;;;;5036242;28;20421;-70
2021/06/04 02:03:26;;;;;;;11.07;10.20;;;20.70;99.90;;;;;;5055791;28;20431;-70
2021/06/04 02:05:55;;;;;;;11.50;10.60;;;20.70;99.90;;;;;;5056298;28;20428;-70
2021/06/04 02:08:31;;;;;;;10.70;9.80;;;20.70;99.90;;;;;;5055960;28;20674;-70
2021/06/04 02:10:57;;;;;;;11.57;10.47;;;20.80;99.90;;;;;;5055898;28;20409;-70
2021/06/04 02:13:23;;;;;;;10.87;9.90;;;20.80;99.90;;;;;;5055428;28;20779;-70
2021/06/04 02:16:00;;;;;;;11.73;10.73;;;20.80;99.90;;;;;;5056246;28;20198;-70
2021/06/04 02:18:38;;;;;;;10.63;9.83;;;20.70;99.90;;;;;;5055767;28;20460;-70
2021/06/04 02:21:11;;;;;;;10.97;9.97;;;20.70;99.90;;;;;;5055692;28;20420;-70
2021/06/04 02:23:46;;;;;;;11.00;10.00;;;20.70;99.90;;;;;;5055555;28;20774;-69
2021/06/04 02:26:14;;;;;;;11.43;10.50;;;20.70;99.90;;;;;;5057277;28;20429;-69
2021/06/04 02:28:53;;;;;;;11.67;10.70;;;20.70;99.90;;;;;;5058545;28;20940;-70
2021/06/04 02:31:28;;;;;;;11.50;10.40;;;20.70;99.90;;;;;;5056664;28;20428;-70
2021/06/04 02:34:14;;;;;;;11.40;10.40;;;20.60;99.90;;;;;;5056067;28;20820;-70
2021/06/04 02:36:47;;;;;;;12.90;11.70;;;20.50;99.90;;;;;;5055846;28;20468;-70
2021/06/04 02:39:21;;;;;;;14.00;12.60;;;20.40;99.90;;;;;;5055738;28;20847;-70
2021/06/04 02:41:55;;;;;;;15.27;13.87;;;20.30;99.90;;;;;;5056293;28;20479;-70
2021/06/04 02:44:26;;;;;;;16.30;14.83;;;20.10;99.90;;;;;;5054905;28;20512;-70
2021/06/04 02:46:57;;;;;;;16.80;15.13;;;20.10;99.90;;;;;;5055359;28;20393;-70
2021/06/04 02:49:23;;;;;;;18.10;16.40;;;20.00;99.90;;;;;;5055854;28;20396;-70
2021/06/04 02:52:08;;;;;;;17.90;16.10;;;20.00;99.90;;;;;;5055270;28;20412;-70
2021/06/04 02:54:38;;;;;;;18.40;16.60;;;20.00;99.90;;;;;;5054668;28;20431;-70
2021/06/04 02:57:07;;;;;;;15.00;13.60;;;20.00;99.90;;;;;;5054506;28;20452;-69
2021/06/04 02:59:39;;;;;;;14.77;13.40;;;20.00;99.90;;;;;;5054065;28;20995;-70
2021/06/04 03:02:16;;;;;;;14.80;13.50;;;20.10;99.90;;;;;;5054951;28;20420;-70
2021/06/04 03:04:48;;;;;;;14.07;12.80;;;20.10;99.90;;;;;;5055241;28;20894;-70
2021/06/04 03:07:25;;;;;;;12.57;11.50;;;20.20;99.90;;;;;;5054523;28;20421;-69
2021/06/04 03:09:52;;;;;;;12.70;11.50;;;20.20;99.90;;;;;;5054947;28;20887;-70
2021/06/04 03:12:39;;;;;;;12.20;11.07;;;20.10;99.90;;;;;;5054661;28;20408;-70
2021/06/04 03:15:20;;;;;;;11.40;10.40;;;20.10;99.90;;;;;;5054866;28;20443;-70
2021/06/04 03:17:46;;;;;;;11.67;10.57;;;20.10;99.90;;;;;;5042697;28;20465;-70
2021/06/04 03:20:16;;;;;;;11.93;10.93;;;20.20;99.90;;;;;;5056015;28;20456;-69
2021/06/04 03:22:43;;;;;;;13.20;11.80;;;20.20;99.90;;;;;;5056258;28;20543;-70
2021/06/04 03:25:22;;;;;;;14.27;13.05;;;20.20;99.90;;;;;;5053356;28;20870;-70
2021/06/04 03:27:49;;;;;;;13.60;12.20;;;20.30;99.90;;;;;;5054195;28;20170;-70
2021/06/04 03:30:20;;;;;;;15.33;13.93;;;20.30;99.90;;;;;;5055093;28;20766;-69
2021/06/04 03:32:45;;;;;;;16.60;14.97;;;20.40;99.90;;;;;;5054915;28;20396;-70
2021/06/04 03:35:13;;;;;;;16.40;14.83;;;20.40;99.90;;;;;;5056303;28;20424;-70
2021/06/04 03:37:39;;;;;;;15.83;14.20;;;20.30;99.90;;;;;;5076157;28;20201;-69
2021/06/04 03:40:11;;;;;;;16.23;14.73;;;20.30;99.90;;;;;;5077917;28;20440;-69
2021/06/04 03:42:37;;;;;;;18.17;16.37;;;20.30;99.90;;;;;;5060142;28;20440;-70
2021/06/04 03:45:06;;;;;;;17.40;15.70;;;20.30;99.90;;;;;;5054485;28;20433;-69
2021/06/04 03:47:32;;;;;;;17.10;15.40;;;20.20;99.90;;;;;;5054336;28;20466;-70
2021/06/04 03:49:57;;;;;;;15.70;14.30;;;20.20;99.90;;;;;;5054580;28;20809;-70
2021/06/04 03:52:24;;;;;;;24.10;20.87;;;20.20;99.90;;;;;;5054262;28;20197;-69
2021/06/04 03:54:52;;;;;;;31.70;25.07;;;20.30;99.90;;;;;;5055065;28;20190;-70
2021/06/04 03:57:23;;;;;;;35.93;27.03;;;20.30;99.90;;;;;;5048310;28;20444;-69
2021/06/04 03:59:48;;;;;;;41.40;31.20;;;20.40;99.90;;;;;;5052263;28;20533;-69
2021/06/04 04:02:18;;;;;;;40.40;30.03;;;20.40;99.90;;;;;;5055199;28;20405;-69
2021/06/04 04:04:43;;;;;;;44.07;31.63;;;20.50;99.90;;;;;;5054410;28;20213;-69
2021/06/04 04:07:11;;;;;;;37.53;28.70;;;20.50;99.90;;;;;;5054453;28;20420;-69
2021/06/04 04:09:36;;;;;;;31.37;24.97;;;20.60;99.90;;;;;;5054055;28;20674;-70
2021/06/04 04:12:03;;;;;;;30.10;24.83;;;20.60;99.90;;;;;;5045716;28;20448;-70
2021/06/04 04:14:29;;;;;;;27.30;21.87;;;20.60;99.90;;;;;;5038895;28;20179;-70
2021/06/04 04:16:54;;;;;;;29.10;23.67;;;20.50;99.90;;;;;;5034024;28;20421;-70
2021/06/04 04:19:22;;;;;;;29.93;25.63;;;20.40;99.90;;;;;;5034306;28;20210;-69
2021/06/04 04:21:50;;;;;;;30.87;25.27;;;20.50;99.90;;;;;;5046352;28;20202;-69
2021/06/04 04:24:21;;;;;;;26.43;23.33;;;20.40;99.90;;;;;;5044265;28;20434;-69
2021/06/04 04:26:47;;;;;;;27.67;24.67;;;20.50;99.90;;;;;;5073182;28;20415;-69
2021/06/04 04:29:13;;;;;;;33.37;26.13;;;20.50;99.90;;;;;;5069895;28;20424;-70
2021/06/04 04:31:46;;;;;;;35.37;29.77;;;20.60;99.90;;;;;;5046364;28;20451;-70
2021/06/04 04:34:12;;;;;;;34.83;28.20;;;20.70;99.90;;;;;;5043445;28;20424;-70
2021/06/04 04:36:44;;;;;;;35.73;30.53;;;20.80;99.90;;;;;;5041354;28;20460;-72
2021/06/04 04:39:14;;;;;;;32.93;28.90;;;20.80;99.90;;;;;;5040747;28;20779;-71
2021/06/04 04:41:40;;;;;;;32.60;26.13;;;20.90;99.90;;;;;;5043382;28;20752;-71
2021/06/04 04:44:06;;;;;;;30.30;25.67;;;20.90;99.90;;;;;;5044608;28;20955;-70
2021/06/04 04:46:31;;;;;;;32.87;26.60;;;20.90;99.90;;;;;;5042115;28;20449;-72
2021/06/04 04:48:58;;;;;;;28.53;25.57;;;20.90;99.90;;;;;;5041400;28;20421;-71
2021/06/04 04:51:26;;;;;;;38.57;33.83;;;20.90;99.90;;;;;;5038111;28;20593;-72
2021/06/04 04:53:52;;;;;;;29.93;25.57;;;21.00;99.90;;;;;;5052117;28;20679;-72
2021/06/04 04:56:20;;;;;;;25.53;21.90;;;21.00;99.90;;;;;;5045905;28;20469;-72
2021/06/04 04:58:46;;;;;;;22.70;20.17;;;21.00;99.90;;;;;;5043033;28;20871;-72
2021/06/04 05:01:13;;;;;;;21.97;19.30;;;20.90;99.90;;;;;;5041152;28;20430;-72
2021/06/04 05:03:39;;;;;;;25.73;22.10;;;20.80;99.90;;;;;;5043255;28;20543;-71
2021/06/04 05:06:07;;;;;;;32.70;24.60;;;20.80;99.90;;;;;;5041672;28;20453;-72
2021/06/04 05:08:32;;;;;;;28.00;23.97;;;20.80;99.90;;;;;;5032874;28;20425;-72
2021/06/04 05:10:58;;;;;;;27.93;23.23;;;20.80;99.90;;;;;;5032941;28;20945;-72
2021/06/04 05:13:24;;;;;;;27.37;23.90;;;20.80;99.90;;;;;;5037979;28;20189;-69
2021/06/04 05:15:49;;;;;;;26.20;23.00;;;20.90;99.90;;;;;;5052429;28;20307;-71
2021/06/04 05:18:15;;;;;;;28.70;23.30;;;20.80;99.90;;;;;;5052362;28;20675;-71
2021/06/04 05:20:44;;;;;;;25.00;21.97;;;20.80;99.90;;;;;;5051074;28;20190;-71
2021/06/04 05:23:10;;;;;;;25.30;22.63;;;20.90;99.90;;;;;;5054316;28;20182;-72
2021/06/04 05:25:42;;;;;;;24.10;21.57;;;20.90;99.90;;;;;;5052997;28;20524;-70
2021/06/04 05:28:08;;;;;;;25.67;22.97;;;21.00;99.90;;;;;;5060147;28;20422;-70
2021/06/04 05:30:38;;;;;;;26.77;22.50;;;21.00;99.90;;;;;;5055681;28;20449;-72
2021/06/04 05:33:06;;;;;;;23.90;21.20;;;21.10;99.90;;;;;;5061637;28;20506;-71
2021/06/04 05:35:32;;;;;;;23.08;20.77;;;21.20;99.90;;;;;;5068407;28;20490;-72
2021/06/04 05:37:58;;;;;;;23.10;18.10;;;21.30;99.90;;;;;;5055515;28;20308;-72
2021/06/04 05:40:29;;;;;;;22.40;19.30;;;21.30;99.90;;;;;;5054241;28;20503;-72
2021/06/04 05:42:56;;;;;;;25.10;21.83;;;21.40;99.90;;;;;;5061110;28;20596;-71
2021/06/04 05:45:26;;;;;;;25.80;23.00;;;21.40;99.90;;;;;;5062409;28;20532;-71
2021/06/04 05:47:52;;;;;;;24.43;21.80;;;21.50;99.90;;;;;;5083496;28;20426;-71
2021/06/04 05:50:22;;;;;;;26.40;23.47;;;21.50;99.90;;;;;;5091001;28;20424;-72
2021/06/04 05:52:48;;;;;;;24.80;22.20;;;21.60;99.90;;;;;;5084067;28;20438;-72
2021/06/04 05:55:17;;;;;;;25.13;22.57;;;21.60;99.90;;;;;;5058279;28;20456;-72
2021/06/04 05:57:43;;;;;;;24.90;22.03;;;21.60;99.90;;;;;;5077539;28;20195;-71
2021/06/04 06:00:14;;;;;;;26.77;22.57;;;21.70;99.90;;;;;;5089881;28;20905;-73
2021/06/04 06:02:41;;;;;;;22.33;20.13;;;21.70;99.90;;;;;;5081746;28;20431;-74
2021/06/04 06:05:07;;;;;;;24.70;22.10;;;21.70;99.90;;;;;;5072857;28;20459;-73
2021/06/04 06:07:33;;;;;;;24.53;21.93;;;21.80;99.90;;;;;;5074214;28;20415;-72
2021/06/04 06:09:58;;;;;;;22.93;20.43;;;21.80;99.90;;;;;;5066071;28;20426;-72
2021/06/04 06:12:24;;;;;;;23.20;20.70;;;21.90;99.90;;;;;;5050106;28;20179;-71
2021/06/04 06:14:49;;;;;;;25.57;22.63;;;22.00;99.90;;;;;;5055191;28;20205;-71
2021/06/04 06:17:15;;;;;;;25.40;22.50;;;22.10;99.90;;;;;;5067970;28;20250;-73
2021/06/04 06:19:40;;;;;;;23.20;20.80;;;22.10;99.90;;;;;;5056231;28;20305;-71
2021/06/04 06:22:06;;;;;;;23.40;21.07;;;22.00;99.90;;;;;;5072684;28;20180;-71
2021/06/04 06:24:32;;;;;;;27.43;21.33;;;21.90;99.90;;;;;;5063626;28;20268;-71
2021/06/04 06:26:57;;;;;;;21.33;19.13;;;21.80;99.90;;;;;;5054323;28;20276;-72
2021/06/04 06:29:24;;;;;;;25.03;19.83;;;21.90;99.90;;;;;;5072673;28;20263;-72
2021/06/04 06:31:50;;;;;;;22.17;19.97;;;22.00;99.90;;;;;;5053103;28;20205;-73
2021/06/04 06:34:16;;;;;;;23.77;21.23;;;22.10;99.90;;;;;;5059157;28;20446;-73
2021/06/04 06:36:44;;;;;;;24.30;21.80;;;22.10;99.90;;;;;;5071381;28;20193;-73
2021/06/04 06:39:15;;;;;;;24.00;21.37;;;22.20;99.90;;;;;;5071724;28;20255;-73
2021/06/04 06:41:42;;;;;;;21.33;18.77;;;22.30;99.90;;;;;;5071840;28;20784;-72
2021/06/04 06:44:09;;;;;;;20.87;18.70;;;22.30;99.90;;;;;;5067198;28;20424;-72
2021/06/04 06:46:38;;;;;;;20.00;18.00;;;22.40;99.90;;;;;;5061507;28;20520;-72
2021/06/04 06:49:04;;;;;;;21.83;17.90;;;22.50;99.90;;;;;;5071820;28;20473;-72
2021/06/04 06:51:33;;;;;;;21.07;18.93;;;22.60;99.90;;;;;;5071699;28;20431;-72
2021/06/04 06:54:00;;;;;;;21.47;19.37;;;22.70;99.90;;;;;;5064670;28;20433;-72
2021/06/04 06:56:26;;;;;;;24.00;21.60;;;22.70;99.90;;;;;;5049389;28;20495;-71
2021/06/04 06:58:53;;;;;;;23.27;20.90;;;22.70;99.90;;;;;;5063706;28;21008;-73
2021/06/04 07:01:19;;;;;;;24.53;22.13;;;22.70;99.90;;;;;;5072282;28;20443;-70
2021/06/04 07:03:46;;;;;;;24.00;20.80;;;22.60;99.90;;;;;;5072611;28;20478;-71
2021/06/04 07:06:19;;;;;;;22.90;20.77;;;22.60;99.90;;;;;;5083272;28;20268;-72
2021/06/04 07:08:45;;;;;;;21.40;19.20;;;22.70;99.90;;;;;;5074063;28;20478;-72
2021/06/04 07:11:11;;;;;;;22.17;20.03;;;22.70;99.90;;;;;;5062405;28;20810;-73
2021/06/04 07:13:37;;;;;;;22.50;20.23;;;22.80;99.90;;;;;;5065656;28;20435;-71
2021/06/04 07:16:06;;;;;;;20.93;18.13;;;22.90;99.90;;;;;;5047115;28;20535;-73
2021/06/04 07:18:31;;;;;;;18.40;16.70;;;22.90;99.90;;;;;;5049272;28;20233;-73
2021/06/04 07:20:57;;;;;;;22.07;17.60;;;23.00;99.90;;;;;;5056202;28;20437;-73
2021/06/04 07:23:25;;;;;;;21.83;19.53;;;23.20;99.90;;;;;;5047848;28;20709;-73
2021/06/04 07:25:51;;;;;;;20.43;18.23;;;23.10;99.90;;;;;;5070392;28;20689;-72
2021/06/04 07:28:19;;;;;;;21.43;19.40;;;23.10;99.90;;;;;;5063107;28;20419;-72
2021/06/04 07:30:48;;;;;;;22.67;20.33;;;23.10;99.90;;;;;;5062032;28;20800;-73
2021/06/04 07:33:20;;;;;;;20.43;16.90;;;23.00;99.90;;;;;;5069049;28;20419;-72
2021/06/04 07:35:47;;;;;;;19.17;17.33;;;23.10;99.90;;;;;;5069581;28;20833;-73
2021/06/04 07:38:12;;;;;;;21.17;19.07;;;23.20;99.90;;;;;;5051847;28;20512;-73
2021/06/04 07:40:39;;;;;;;20.43;18.43;;;23.30;99.90;;;;;;5056332;28;20447;-71
2021/06/04 07:43:10;;;;;;;20.17;17.90;;;23.30;99.90;;;;;;5056583;28;20261;-73
2021/06/04 07:45:39;;;;;;;17.10;15.30;;;23.50;99.90;;;;;;5054671;28;20949;-72
2021/06/04 07:48:07;;;;;;;24.90;20.97;;;23.60;99.90;;;;;;5054583;28;20449;-72
2021/06/04 07:50:33;;;;;;;27.77;23.13;;;23.60;99.90;;;;;;5055251;28;20416;-72
2021/06/04 07:52:59;;;;;;;26.60;23.90;;;23.60;99.90;;;;;;5052510;28;20472;-72
2021/06/04 07:55:26;;;;;;;28.90;25.80;;;23.40;99.90;;;;;;5057910;28;20436;-72
2021/06/04 07:57:52;;;;;;;29.37;24.40;;;23.20;99.90;;;;;;5053491;28;20182;-72
2021/06/04 08:00:27;;;;;;;23.90;21.50;;;23.20;99.90;;;;;;5056407;28;20928;-70
2021/06/04 08:02:54;;;;;;;24.03;21.73;;;23.20;99.90;;;;;;5052592;28;20447;-71
2021/06/04 08:05:19;;;;;;;23.37;20.90;;;23.30;99.90;;;;;;5048364;28;20974;-70
2021/06/04 08:07:45;;;;;;;23.47;21.10;;;23.30;99.90;;;;;;5045418;28;20474;-70
2021/06/04 08:10:12;;;;;;;26.43;21.13;;;23.40;99.90;;;;;;5064280;28;20182;-70
2021/06/04 08:12:38;;;;;;;26.27;23.70;;;23.40;99.90;;;;;;5060349;28;20229;-71
2021/06/04 08:15:19;;;;;;;20.17;17.93;;;23.30;99.90;;;;;;5067626;28;20509;-71
2021/06/04 08:17:46;;;;;;;18.47;16.70;;;23.30;99.90;;;;;;5063203;28;20529;-69
2021/06/04 08:20:14;;;;;;;21.57;19.30;;;23.40;99.90;;;;;;5063848;28;20436;-69
2021/06/04 08:22:44;;;;;;;25.43;22.73;;;23.70;99.90;;;;;;5054974;28;20472;-70
2021/06/04 08:25:12;;;;;;;24.00;21.60;;;23.80;99.90;;;;;;5071598;28;20440;-71
2021/06/04 08:27:38;;;;;;;23.93;21.20;;;23.80;99.90;;;;;;5052268;28;20444;-71
2021/06/04 08:30:06;;;;;;;23.80;21.40;;;23.90;99.90;;;;;;5042495;28;20495;-72
2021/06/04 08:32:33;;;;;;;18.83;16.90;;;23.90;99.90;;;;;;5046927;28;20182;-72
2021/06/04 08:34:59;;;;;;;17.13;14.77;;;23.90;99.90;;;;;;5061776;28;20432;-72
2021/06/04 08:37:24;;;;;;;15.07;13.53;;;24.10;99.90;;;;;;5070022;28;20986;-71
2021/06/04 08:39:50;;;;;;;23.20;21.10;;;24.10;99.90;;;;;;5066549;28;20492;-72
2021/06/04 08:42:50;;;;;;;19.80;17.70;;;24.20;99.90;;;;;;5061942;28;20186;-72
2021/06/04 08:45:34;;;;;;;20.75;18.70;;;24.30;99.90;;;;;;5066439;28;20437;-71
2021/06/04 08:48:16;;;;;;;24.00;19.50;;;24.40;99.90;;;;;;5051636;28;20181;-71
2021/06/04 08:50:57;;;;;;;19.00;17.00;;;24.50;99.90;;;;;;5043192;28;20436;-71
2021/06/04 08:53:34;;;;;;;18.80;16.90;;;24.60;99.90;;;;;;5031039;28;20421;-72
2021/06/04 08:56:05;;;;;;;17.10;15.30;;;24.70;99.90;;;;;;5047805;28;20281;-72
2021/06/04 08:58:55;;;;;;;17.70;16.07;;;24.50;99.90;;;;;;5050467;28;21362;-72
2021/06/04 09:01:39;;;;;;;16.27;14.20;;;24.50;99.90;;;;;;5034468;28;20428;-72
2021/06/04 09:04:08;;;;;;;16.07;14.40;;;24.60;99.90;;;;;;5049713;28;20412;-72
2021/06/04 09:06:56;;;;;;;16.10;14.60;;;24.70;99.90;;;;;;5063751;28;20864;-71
2021/06/04 09:09:31;;;;;;;14.97;13.47;;;24.90;99.90;;;;;;5069851;28;20442;-71
2021/06/04 09:12:00;;;;;;;13.97;12.60;;;25.10;99.90;;;;;;5058065;28;20431;-71
2021/06/04 09:14:27;;;;;;;14.60;13.27;;;25.20;99.90;;;;;;5040793;28;20460;-71
2021/06/04 09:17:24;;;;;;;14.53;13.13;;;25.40;99.90;;;;;;5042148;28;20817;-71
2021/06/04 09:20:09;;;;;;;13.50;12.20;;;25.50;97.70;;;;;;5035489;28;20440;-71
2021/06/04 09:22:41;;;;;;;12.63;11.60;;;25.50;96.90;;;;;;5047797;28;20427;-71
2021/06/04 09:25:11;;;;;;;13.00;11.83;;;25.60;97.90;;;;;;5070920;28;20431;-71
2021/06/04 09:27:40;;;;;;;12.10;10.97;;;25.70;98.20;;;;;;5057195;28;20435;-71
2021/06/04 09:30:33;;;;;;;12.20;11.00;;;25.90;98.30;;;;;;5056709;28;20439;-72
2021/06/04 09:33:11;;;;;;;12.67;11.47;;;26.10;98.40;;;;;;5047254;28;20466;-71
2021/06/04 09:35:52;;;;;;;12.30;11.20;;;26.20;97.50;;;;;;5061281;28;20523;-71
2021/06/04 09:38:41;;;;;;;12.60;11.30;;;26.30;96.20;;;;;;5057666;28;20483;-71
2021/06/04 09:41:39;;;;;;;14.87;13.67;;;26.40;95.80;;;;;;5055865;28;20646;-72
2021/06/04 09:44:17;;;;;;;14.50;13.10;;;26.20;96.10;;;;;;5042631;28;20533;-72
2021/06/04 09:46:48;;;;;;;12.77;11.67;;;26.00;95.50;;;;;;5042453;28;20433;-71
2021/06/04 09:49:27;;;;;;;12.97;11.67;;;26.00;95.70;;;;;;5051698;28;20437;-72
2021/06/04 09:51:57;;;;;;;11.70;10.70;;;26.10;96.60;;;;;;5055403;28;20750;-71
2021/06/04 09:54:25;;;;;;;15.90;14.40;;;26.20;96.80;;;;;;5048367;28;20424;-71
2021/06/04 09:57:08;;;;;;;16.47;14.20;;;26.10;95.60;;;;;;5046385;28;20788;-71
2021/06/04 09:59:35;;;;;;;14.33;13.10;;;26.10;95.50;;;;;;5045918;28;20573;-71
2021/06/04 10:02:01;;;;;;;17.77;16.07;;;25.90;94.70;;;;;;5064652;28;20474;-71
2021/06/04 10:04:32;;;;;;;17.47;15.93;;;25.80;95.20;;;;;;5064352;28;20868;-71
2021/06/04 10:07:01;;;;;;;16.07;14.67;;;25.50;95.80;;;;;;5053712;28;20189;-71
2021/06/04 10:09:32;;;;;;;17.40;15.90;;;25.50;96.30;;;;;;5044192;28;20473;-71
2021/06/04 10:12:29;;;;;;;18.23;16.30;;;25.60;96.00;;;;;;5034611;28;20429;-71
2021/06/04 10:14:57;;;;;;;18.67;16.97;;;25.50;96.50;;;;;;5041623;28;20472;-71
2021/06/04 10:20:24;;;;;;;14.83;13.53;;;25.60;96.70;;;;;;5047010;28;20456;-72
2021/06/04 10:22:53;;;;;;;16.93;15.53;;;25.80;96.70;;;;;;5040431;28;20416;-72
2021/06/04 10:25:24;;;;;;;16.87;15.47;;;26.10;96.20;;;;;;5035685;28;20970;-72
2021/06/04 10:27:54;;;;;;;16.20;14.70;;;26.10;95.60;;;;;;5036467;28;20509;-72
2021/06/04 10:30:40;;;;;;;16.53;15.00;;;26.20;95.60;;;;;;5040501;28;20460;-72
2021/06/04 10:33:22;;;;;;;15.90;14.50;;;26.40;95.50;;;;;;5037645;28;20398;-72
2021/06/04 10:35:57;;;;;;;18.90;17.20;;;26.50;95.20;;;;;;5056804;28;20448;-73
2021/06/04 10:38:37;;;;;;;17.93;16.13;;;26.60;94.90;;;;;;5069506;28;20444;-73
2021/06/04 10:41:15;;;;;;;17.50;15.90;;;26.60;95.00;;;;;;5069817;28;20400;-72
2021/06/04 10:44:10;;;;;;;17.30;15.50;;;26.60;95.10;;;;;;5056851;28;20427;-72
2021/06/04 10:46:54;;;;;;;18.60;17.00;;;26.80;94.70;;;;;;5050195;28;20472;-72
2021/06/04 10:49:42;;;;;;;16.23;14.87;;;26.70;94.30;;;;;;5056250;28;20401;-72
2021/06/04 10:52:30;;;;;;;15.83;14.50;;;26.90;94.30;;;;;;5054518;28;20452;-73
2021/06/04 10:55:07;;;;;;;14.73;13.33;;;27.10;94.10;;;;;;5039598;28;20436;-71
2021/06/04 10:57:39;;;;;;;15.53;14.20;;;27.30;94.00;;;;;;5055361;28;20885;-70
2021/06/04 11:00:19;;;;;;;18.77;16.97;;;27.30;93.60;;;;;;5066459;28;20441;-71
2021/06/04 11:03:13;;;;;;;15.90;14.30;;;27.20;93.30;;;;;;5054044;28;20415;-72
2021/06/04 11:05:56;;;;;;;14.57;13.27;;;27.10;93.50;;;;;;5053549;28;20447;-72
2021/06/04 11:08:30;;;;;;;15.50;14.13;;;27.30;93.40;;;;;;5052983;28;20432;-71
2021/06/04 11:11:15;;;;;;;17.10;15.50;;;27.30;93.30;;;;;;5053503;28;20423;-72
2021/06/04 11:14:06;;;;;;;18.47;16.80;;;27.40;93.30;;;;;;5055037;28;20491;-71
2021/06/04 11:16:45;;;;;;;18.27;16.67;;;27.10;93.50;;;;;;5054959;28;20964;-72
2021/06/04 11:19:32;;;;;;;21.43;16.80;;;26.90;93.80;;;;;;5055311;28;20451;-72
2021/06/04 11:22:02;;;;;;;19.00;17.40;;;26.70;93.80;;;;;;5055615;28;20420;-72
2021/06/04 11:24:46;;;;;;;19.87;18.03;;;26.60;94.10;;;;;;5065770;28;20393;-71
2021/06/04 11:27:31;;;;;;;22.77;20.53;;;26.50;94.40;;;;;;5055783;28;20416;-72
2021/06/04 11:29:57;;;;;;;19.23;17.40;;;26.50;94.60;;;;;;5054886;28;20400;-72
2021/06/04 11:32:29;;;;;;;21.90;19.80;;;26.40;95.10;;;;;;5054454;28;20409;-72
2021/06/04 11:35:18;;;;;;;20.40;18.60;;;26.40;95.20;;;;;;5055014;28;20478;-72
2021/06/04 11:37:57;;;;;;;20.80;18.90;;;26.40;95.40;;;;;;5054407;28;20420;-72
2021/06/04 11:40:45;;;;;;;24.27;21.98;;;26.50;95.40;;;;;;5053842;28;20412;-71
2021/06/04 11:43:13;;;;;;;20.63;18.77;;;26.50;95.20;;;;;;5054376;28;20538;-72
2021/06/04 11:45:45;;;;;;;23.43;21.10;;;26.50;95.20;;;;;;5053051;28;20963;-71
2021/06/04 11:48:26;;;;;;;24.93;22.67;;;26.40;95.50;;;;;;5054477;28;20420;-73
2021/06/04 11:51:17;;;;;;;23.50;21.40;;;26.40;95.80;;;;;;5054724;28;20489;-72
2021/06/04 11:53:44;;;;;;;23.40;21.10;;;26.30;95.90;;;;;;5053984;28;20566;-71
2021/06/04 11:56:32;;;;;;;23.00;20.90;;;26.20;96.00;;;;;;5053720;28;20440;-71
2021/06/04 11:58:57;;;;;;;22.37;20.37;;;26.20;95.80;;;;;;5033828;28;20568;-71
2021/06/04 12:01:23;;;;;;;19.60;17.80;;;26.00;95.90;;;;;;5034506;28;20554;-72
2021/06/04 12:04:00;;;;;;;18.33;16.60;;;25.90;96.20;;;;;;5033949;28;20534;-72
2021/06/04 12:06:27;;;;;;;19.83;17.80;;;26.00;96.20;;;;;;5034236;28;20186;-72
2021/06/04 12:08:54;;;;;;;22.60;20.50;;;26.10;96.00;;;;;;5052587;28;20969;-73
2021/06/04 12:11:20;;;;;;;19.63;17.83;;;26.20;95.70;;;;;;5054014;28;20459;-72
2021/06/04 12:14:05;;;;;;;17.67;15.90;;;26.20;96.10;;;;;;5053558;28;20449;-72
2021/06/04 12:16:38;;;;;;;19.13;17.20;;;26.30;96.10;;;;;;5053876;28;20256;-71
2021/06/04 12:19:27;;;;;;;17.40;15.70;;;26.40;95.80;;;;;;5053667;28;20543;-72
2021/06/04 12:22:09;;;;;;;18.23;16.53;;;26.60;95.70;;;;;;5054080;28;20408;-72
2021/06/04 12:24:36;;;;;;;20.40;18.60;;;26.70;95.40;;;;;;5053493;28;20404;-72
2021/06/04 12:27:21;;;;;;;19.07;17.23;;;26.80;95.30;;;;;;5053896;28;20423;-72
2021/06/04 12:29:51;;;;;;;18.27;16.77;;;26.90;95.10;;;;;;5053514;28;20432;-72
2021/06/04 12:32:48;;;;;;;18.10;16.50;;;26.90;95.00;;;;;;5052261;28;20419;-72
2021/06/04 12:35:42;;;;;;;23.07;19.07;;;27.20;94.70;;;;;;5053614;28;20444;-72
2021/06/04 12:38:26;;;;;;;17.17;15.60;;;27.20;94.40;;;;;;5048283;28;20807;-71
2021/06/04 12:40:53;;;;;;;18.80;17.10;;;27.10;94.70;;;;;;5044181;28;20420;-72
2021/06/04 12:43:27;;;;;;;17.97;16.23;;;27.20;94.30;;;;;;5043826;28;20421;-72
2021/06/04 12:46:10;;;;;;;19.00;17.30;;;27.50;94.30;;;;;;5044720;28;20507;-72
2021/06/04 12:48:39;;;;;;;20.50;18.63;;;27.60;94.10;;;;;;5033718;28;20409;-73
2021/06/04 12:51:06;;;;;;;19.83;17.73;;;27.80;93.70;;;;;;5047754;28;20417;-72
2021/06/04 12:53:42;;;;;;;18.10;16.27;;;28.10;93.20;;;;;;5044423;28;20505;-73
2021/06/04 12:56:21;;;;;;;17.97;16.37;;;28.10;92.80;;;;;;5041554;28;20436;-73